Time;durP1;ratioP1;P1;durP2;ratioP2;P2;SDS_P1;SDS_P2;PMS_P1;PMS_P2;Temp;Humidity;BMP_temperature;BMP_pressure;BME280_temperature;BME280_humidity;BME280_pressure;Samples;Min_cycle;Max_cycle;Signal;HPM_P1;HPM_P2
2021/08/21 00:02:23;;;;;;;4.70;4.20;;;;;;;;;;5055705;28;20028;-59
2021/08/21 00:04:52;;;;;;;6.85;4.70;;;;;;;;;;5056624;28;20387;-59
2021/08/21 00:07:18;;;;;;;8.45;4.72;;;;;;;;;;5055762;28;20025;-60
2021/08/21 00:09:46;;;;;;;7.63;4.68;;;;;;;;;;5054505;28;20029;-60
2021/08/21 00:12:12;;;;;;;8.98;4.78;;;;;;;;;;5055803;28;20028;-59
2021/08/21 00:14:38;;;;;;;7.15;4.95;;;;;;;;;;5056008;28;20459;-59
2021/08/21 00:17:04;;;;;;;5.30;4.30;;;;;;;;;;5055448;28;20525;-59
2021/08/21 00:19:30;;;;;;;6.40;4.90;;;;;;;;;;5055369;28;20024;-60
2021/08/21 00:21:56;;;;;;;4.75;4.15;;;;;;;;;;5056122;28;20459;-59
2021/08/21 00:24:23;;;;;;;6.20;5.35;;;;;;;;;;5055269;28;20036;-59
2021/08/21 00:26:48;;;;;;;5.90;4.97;;;;;;;;;;5055427;28;20045;-59
2021/08/21 00:29:14;;;;;;;6.47;4.65;;;;;;;;;;5055665;28;20025;-60
2021/08/21 00:31:40;;;;;;;7.68;5.80;;;;;;;;;;5055761;28;20028;-59
2021/08/21 00:34:07;;;;;;;5.70;4.90;;;;;;;;;;5055623;28;20037;-59
2021/08/21 00:36:33;;;;;;;6.30;4.93;;;;;;;;;;5053942;28;20467;-59
2021/08/21 00:38:58;;;;;;;7.20;5.13;;;;;;;;;;5055817;28;20029;-59
2021/08/21 00:41:24;;;;;;;6.18;3.83;;;;;;;;;;5055187;28;20029;-59
2021/08/21 00:43:50;;;;;;;6.43;5.43;;;;;;;;;;5055190;28;20023;-59
2021/08/21 00:46:16;;;;;;;6.10;5.00;;;;;;;;;;5055368;28;20039;-59
2021/08/21 00:48:42;;;;;;;6.72;5.28;;;;;;;;;;5054961;28;20021;-59
2021/08/21 00:51:09;;;;;;;6.20;5.60;;;;;;;;;;5054997;28;20090;-59
2021/08/21 00:53:37;;;;;;;6.38;5.40;;;;;;;;;;5055579;28;20021;-59
2021/08/21 00:56:03;;;;;;;7.10;4.95;;;;;;;;;;5054875;28;20108;-59
2021/08/21 00:58:30;;;;;;;5.35;4.43;;;;;;;;;;5055408;28;20132;-59
2021/08/21 01:00:57;;;;;;;4.88;4.38;;;;;;;;;;5054855;28;20029;-59
2021/08/21 01:03:23;;;;;;;6.20;4.65;;;;;;;;;;5054124;28;20108;-59
2021/08/21 01:05:49;;;;;;;9.65;4.32;;;;;;;;;;5052449;28;20120;-59
2021/08/21 01:08:16;;;;;;;5.68;5.05;;;;;;;;;;5054677;28;20029;-59
2021/08/21 01:10:42;;;;;;;5.57;4.72;;;;;;;;;;5053527;28;20021;-59
2021/08/21 01:13:08;;;;;;;5.90;4.90;;;;;;;;;;5054953;28;20056;-59
2021/08/21 01:15:34;;;;;;;6.97;5.30;;;;;;;;;;5054473;28;20099;-59
2021/08/21 01:18:03;;;;;;;7.05;4.72;;;;;;;;;;5054531;28;20085;-59
2021/08/21 01:20:30;;;;;;;6.05;4.88;;;;;;;;;;5054472;28;20036;-59
2021/08/21 01:22:56;;;;;;;6.07;5.00;;;;;;;;;;5053101;28;20028;-59
2021/08/21 01:25:26;;;;;;;6.57;5.20;;;;;;;;;;5052824;28;20033;-59
2021/08/21 01:27:52;;;;;;;;;;;;;;;;;;5055007;28;20044;-59
2021/08/21 01:30:18;;;;;;;6.85;5.10;;;;;;;;;;5054307;28;20334;-59
2021/08/21 01:32:45;;;;;;;6.43;5.40;;;;;;;;;;5054798;28;20025;-59
2021/08/21 01:35:11;;;;;;;7.82;4.68;;;;;;;;;;5052939;28;20053;-59
2021/08/21 01:37:37;;;;;;;6.30;5.10;;;;;;;;;;5053036;28;20028;-59
2021/08/21 01:40:04;;;;;;;4.63;3.95;;;;;;;;;;5053099;28;20458;-59
2021/08/21 01:42:30;;;;;;;7.03;5.57;;;;;;;;;;5052966;28;20028;-59
2021/08/21 01:44:56;;;;;;;5.80;5.20;;;;;;;;;;5053990;28;20433;-60
2021/08/21 01:47:22;;;;;;;6.50;4.75;;;;;;;;;;5053914;28;20024;-60
2021/08/21 01:49:52;;;;;;;4.53;3.75;;;;;;;;;;5054494;28;20103;-60
2021/08/21 01:52:18;;;;;;;5.35;4.28;;;;;;;;;;5054137;28;20470;-60
2021/08/21 01:54:44;;;;;;;5.25;4.53;;;;;;;;;;5053927;28;20070;-59
2021/08/21 01:57:10;;;;;;;5.43;4.10;;;;;;;;;;5053721;28;20451;-60
2021/08/21 01:59:40;;;;;;;5.03;4.53;;;;;;;;;;5053728;28;20025;-60
2021/08/21 02:02:11;;;;;;;5.93;4.80;;;;;;;;;;5053366;28;20037;-60
2021/08/21 02:04:37;;;;;;;5.38;4.88;;;;;;;;;;5053681;28;20021;-60
2021/08/21 02:07:03;;;;;;;5.47;4.80;;;;;;;;;;5053446;28;20375;-60
2021/08/21 02:09:30;;;;;;;5.63;5.03;;;;;;;;;;5052978;28;20021;-59
2021/08/21 02:11:57;;;;;;;5.10;4.60;;;;;;;;;;5054213;28;20447;-60
2021/08/21 02:14:23;;;;;;;7.55;4.70;;;;;;;;;;5052946;28;20025;-60
2021/08/21 02:16:50;;;;;;;5.63;4.65;;;;;;;;;;5053913;28;20025;-59
2021/08/21 02:19:16;;;;;;;6.57;4.50;;;;;;;;;;5053553;28;20459;-59
2021/08/21 02:21:43;;;;;;;4.80;4.30;;;;;;;;;;5054085;28;20052;-59
2021/08/21 02:24:10;;;;;;;5.40;4.13;;;;;;;;;;5053717;28;20031;-59
2021/08/21 02:26:41;;;;;;;6.90;4.60;;;;;;;;;;5053696;28;20060;-59
2021/08/21 02:29:08;;;;;;;9.27;5.47;;;;;;;;;;5054346;28;20070;-59
2021/08/21 02:31:34;;;;;;;6.45;5.28;;;;;;;;;;5053454;28;20433;-59
2021/08/21 02:34:00;;;;;;;6.13;4.35;;;;;;;;;;5054216;28;20028;-59
2021/08/21 02:36:26;;;;;;;5.68;4.97;;;;;;;;;;5053363;28;20371;-59
2021/08/21 02:38:52;;;;;;;6.82;5.10;;;;;;;;;;5052185;28;20040;-59
2021/08/21 02:41:18;;;;;;;5.13;4.63;;;;;;;;;;5053450;28;20151;-59
2021/08/21 02:43:44;;;;;;;5.60;5.00;;;;;;;;;;5053093;28;20036;-59
2021/08/21 02:46:10;;;;;;;5.30;4.80;;;;;;;;;;5053063;28;20459;-59
2021/08/21 02:48:36;;;;;;;7.60;6.35;;;;;;;;;;5053309;28;20375;-59
2021/08/21 02:51:02;;;;;;;6.60;5.07;;;;;;;;;;5052778;28;20028;-59
2021/08/21 02:53:28;;;;;;;5.70;4.93;;;;;;;;;;5052611;28;20025;-59
2021/08/21 02:55:55;;;;;;;6.90;5.57;;;;;;;;;;5052865;28;20108;-59
2021/08/21 02:58:20;;;;;;;6.10;4.75;;;;;;;;;;5052758;28;20083;-59
2021/08/21 03:00:46;;;;;;;7.40;5.90;;;;;;;;;;5053419;28;20025;-59
2021/08/21 03:03:13;;;;;;;6.35;5.00;;;;;;;;;;5053472;28;20021;-59
2021/08/21 03:05:39;;;;;;;5.68;4.82;;;;;;;;;;5053169;28;20029;-59
2021/08/21 03:08:05;;;;;;;5.45;4.85;;;;;;;;;;5053097;28;20025;-59
2021/08/21 03:10:31;;;;;;;5.93;4.70;;;;;;;;;;5051862;28;20112;-59
2021/08/21 03:12:57;;;;;;;5.97;5.38;;;;;;;;;;5053429;28;20059;-59
2021/08/21 03:15:24;;;;;;;5.35;4.63;;;;;;;;;;5051520;28;20379;-59
2021/08/21 03:17:50;;;;;;;6.20;4.88;;;;;;;;;;5051392;28;20039;-59
2021/08/21 03:20:16;;;;;;;6.03;5.40;;;;;;;;;;5052946;28;20033;-59
2021/08/21 03:22:42;;;;;;;5.30;4.57;;;;;;;;;;5053079;28;20083;-59
2021/08/21 03:25:08;;;;;;;5.32;4.82;;;;;;;;;;5051708;28;20025;-59
2021/08/21 03:27:34;;;;;;;6.95;4.30;;;;;;;;;;5053911;28;20048;-59
2021/08/21 03:30:00;;;;;;;6.40;4.60;;;;;;;;;;5056403;28;20439;-59
2021/08/21 03:32:26;;;;;;;5.63;4.72;;;;;;;;;;5056941;28;20070;-59
2021/08/21 03:34:55;;;;;;;6.15;4.88;;;;;;;;;;5056609;28;20425;-59
2021/08/21 03:37:21;;;;;;;8.18;5.53;;;;;;;;;;5055225;28;20120;-59
2021/08/21 03:39:49;;;;;;;7.03;4.63;;;;;;;;;;5057059;28;20036;-59
2021/08/21 03:42:16;;;;;;;5.50;4.68;;;;;;;;;;5056803;28;20024;-59
2021/08/21 03:44:42;;;;;;;7.93;5.60;;;;;;;;;;5055131;28;20021;-59
2021/08/21 03:47:08;;;;;;;5.82;4.70;;;;;;;;;;5056583;28;20029;-59
2021/08/21 03:49:34;;;;;;;6.18;4.70;;;;;;;;;;5056312;28;20029;-59
2021/08/21 03:52:00;;;;;;;5.85;4.55;;;;;;;;;;5056846;28;20082;-59
2021/08/21 03:54:26;;;;;;;6.80;5.18;;;;;;;;;;5056542;28;20378;-59
2021/08/21 03:56:52;;;;;;;6.55;5.15;;;;;;;;;;5055804;28;20025;-59
2021/08/21 03:59:18;;;;;;;5.25;4.40;;;;;;;;;;5056386;28;20110;-59
2021/08/21 04:01:44;;;;;;;5.85;4.70;;;;;;;;;;5038867;28;20053;-59
2021/08/21 04:04:10;;;;;;;6.57;5.07;;;;;;;;;;5056043;28;20458;-59
2021/08/21 04:06:40;;;;;;;7.47;3.90;;;;;;;;;;5055561;28;20039;-59
2021/08/21 04:09:07;;;;;;;8.05;4.30;;;;;;;;;;5054576;28;20037;-59
2021/08/21 04:11:33;;;;;;;5.65;4.20;;;;;;;;;;5054573;28;20551;-59
2021/08/21 04:13:59;;;;;;;4.75;3.78;;;;;;;;;;5055163;28;20371;-59
2021/08/21 04:16:25;;;;;;;5.00;4.50;;;;;;;;;;5055716;28;20366;-59
2021/08/21 04:18:51;;;;;;;7.60;4.63;;;;;;;;;;5056013;28;20103;-59
2021/08/21 04:21:17;;;;;;;9.15;4.35;;;;;;;;;;5054383;28;20025;-59
2021/08/21 04:23:46;;;;;;;4.93;4.43;;;;;;;;;;5055962;28;20056;-59
2021/08/21 04:26:12;;;;;;;6.40;3.83;;;;;;;;;;5055717;28;20395;-59
2021/08/21 04:28:38;;;;;;;4.47;3.70;;;;;;;;;;5054183;28;20033;-59
2021/08/21 04:31:04;;;;;;;6.30;4.15;;;;;;;;;;5055557;28;20463;-59
2021/08/21 04:33:30;;;;;;;6.78;5.03;;;;;;;;;;5056065;28;20028;-59
2021/08/21 04:35:58;;;;;;;5.15;3.53;;;;;;;;;;5055370;28;20037;-59
2021/08/21 04:38:24;;;;;;;3.78;3.38;;;;;;;;;;5054095;28;20032;-60
2021/08/21 04:40:50;;;;;;;5.63;4.10;;;;;;;;;;5055348;28;20524;-60
2021/08/21 04:43:19;;;;;;;4.82;3.70;;;;;;;;;;5055895;28;20037;-59
2021/08/21 04:45:46;;;;;;;4.35;3.67;;;;;;;;;;5054262;28;20029;-59
2021/08/21 04:48:12;;;;;;;5.18;4.60;;;;;;;;;;5054492;28;20029;-59
2021/08/21 04:50:38;;;;;;;6.22;4.43;;;;;;;;;;5053887;28;20048;-60
2021/08/21 04:53:07;;;;;;;5.95;4.55;;;;;;;;;;5055000;28;20083;-60
2021/08/21 04:55:33;;;;;;;7.82;4.78;;;;;;;;;;5054957;28;20398;-59
2021/08/21 04:58:00;;;;;;;5.05;4.28;;;;;;;;;;5054734;28;20082;-60
2021/08/21 05:00:26;;;;;;;6.72;4.75;;;;;;;;;;5054921;28;20540;-60
2021/08/21 05:02:54;;;;;;;4.90;4.03;;;;;;;;;;5055146;28;20028;-59
2021/08/21 05:05:20;;;;;;;4.22;3.65;;;;;;;;;;5055354;28;20451;-60
2021/08/21 05:07:50;;;;;;;5.05;4.45;;;;;;;;;;5053485;28;20036;-59
2021/08/21 05:10:16;;;;;;;6.28;3.80;;;;;;;;;;5054659;28;20036;-60
2021/08/21 05:12:42;;;;;;;6.47;5.18;;;;;;;;;;5055052;28;20028;-60
2021/08/21 05:15:08;;;;;;;6.47;4.18;;;;;;;;;;5053433;28;20021;-60
2021/08/21 05:17:36;;;;;;;6.72;4.68;;;;;;;;;;5054488;28;20064;-60
2021/08/21 05:20:41;;;;;;;5.93;4.20;;;;;;;;;;5054876;28;20057;-59
2021/08/21 05:23:13;;;;;;;7.00;4.45;;;;;;;;;;5053650;28;20120;-59
2021/08/21 05:25:40;;;;;;;5.82;4.30;;;;;;;;;;5054562;28;20060;-59
2021/08/21 05:28:06;;;;;;;7.28;3.95;;;;;;;;;;5054446;28;20036;-59
2021/08/21 05:30:33;;;;;;;5.22;4.00;;;;;;;;;;5054311;28;20032;-59
2021/08/21 05:32:59;;;;;;;5.45;4.20;;;;;;;;;;5054530;28;20486;-59
2021/08/21 05:35:25;;;;;;;4.82;4.35;;;;;;;;;;5054226;28;20490;-59
2021/08/21 05:37:51;;;;;;;6.93;4.47;;;;;;;;;;5054151;28;20040;-59
2021/08/21 05:40:17;;;;;;;5.93;4.50;;;;;;;;;;5054359;28;20029;-59
2021/08/21 05:42:44;;;;;;;6.22;5.03;;;;;;;;;;5055026;28;20032;-59
2021/08/21 05:45:10;;;;;;;4.20;3.60;;;;;;;;;;5054115;28;20540;-59
2021/08/21 05:47:36;;;;;;;5.82;4.18;;;;;;;;;;5054016;28;20051;-59
2021/08/21 05:50:02;;;;;;;6.45;4.18;;;;;;;;;;5052797;28;20056;-59
2021/08/21 05:52:28;;;;;;;5.38;4.32;;;;;;;;;;5053104;28;20017;-59
2021/08/21 05:54:54;;;;;;;5.30;4.65;;;;;;;;;;5052410;28;20025;-59
2021/08/21 05:57:20;;;;;;;6.43;5.13;;;;;;;;;;5053854;28;20025;-59
2021/08/21 05:59:46;;;;;;;7.47;5.63;;;;;;;;;;5052644;28;20036;-59
2021/08/21 06:02:13;;;;;;;6.57;5.45;;;;;;;;;;5054202;28;20021;-59
2021/08/21 06:04:39;;;;;;;6.22;4.80;;;;;;;;;;5054187;28;20108;-59
2021/08/21 06:07:05;;;;;;;6.18;5.13;;;;;;;;;;5054381;28;20064;-59
2021/08/21 06:09:31;;;;;;;8.70;5.45;;;;;;;;;;5054216;28;20025;-59
2021/08/21 06:11:57;;;;;;;6.82;4.85;;;;;;;;;;5054306;28;20029;-59
2021/08/21 06:14:23;;;;;;;6.78;5.80;;;;;;;;;;5052970;28;20021;-59
2021/08/21 06:16:49;;;;;;;6.90;5.50;;;;;;;;;;5053706;28;20390;-60
2021/08/21 06:19:15;;;;;;;7.97;5.82;;;;;;;;;;5053653;28;20028;-60
2021/08/21 06:21:44;;;;;;;7.03;5.30;;;;;;;;;;5054044;28;20083;-59
2021/08/21 06:24:10;;;;;;;6.50;5.35;;;;;;;;;;5053758;28;20071;-60
2021/08/21 06:26:38;;;;;;;10.95;5.72;;;;;;;;;;5053161;28;20061;-59
2021/08/21 06:29:04;;;;;;;6.30;5.35;;;;;;;;;;5053551;28;20120;-60
2021/08/21 06:31:30;;;;;;;5.75;4.60;;;;;;;;;;5053054;28;20467;-59
2021/08/21 06:33:56;;;;;;;6.90;5.25;;;;;;;;;;5054001;28;20079;-59
2021/08/21 06:36:22;;;;;;;5.97;4.88;;;;;;;;;;5052974;28;20021;-59
2021/08/21 06:38:48;;;;;;;7.78;5.82;;;;;;;;;;5053432;28;20490;-60
2021/08/21 06:41:14;;;;;;;6.55;5.63;;;;;;;;;;5054021;28;20079;-60
2021/08/21 06:43:40;;;;;;;7.20;5.57;;;;;;;;;;5053773;28;20025;-60
2021/08/21 06:46:07;;;;;;;8.77;6.80;;;;;;;;;;5052082;28;20029;-59
2021/08/21 06:48:34;;;;;;;7.47;5.68;;;;;;;;;;5052347;28;20083;-60
2021/08/21 06:51:00;;;;;;;7.38;5.32;;;;;;;;;;5052987;28;20029;-59
2021/08/21 06:53:29;;;;;;;6.18;5.40;;;;;;;;;;5036102;28;20021;-60
2021/08/21 06:55:55;;;;;;;5.57;4.93;;;;;;;;;;5053172;28;20075;-59
2021/08/21 06:58:21;;;;;;;5.22;4.47;;;;;;;;;;5053325;28;20040;-60
2021/08/21 07:00:47;;;;;;;5.50;4.50;;;;;;;;;;5052589;28;20033;-60
2021/08/21 07:03:13;;;;;;;6.32;5.22;;;;;;;;;;5056229;28;20040;-60
2021/08/21 07:05:40;;;;;;;7.88;5.00;;;;;;;;;;5057118;28;20108;-60
2021/08/21 07:08:06;;;;;;;6.18;5.43;;;;;;;;;;5057003;28;20078;-59
2021/08/21 07:10:32;;;;;;;5.72;4.18;;;;;;;;;;5057256;28;20104;-60
2021/08/21 07:12:58;;;;;;;7.00;4.97;;;;;;;;;;5057322;28;20443;-60
2021/08/21 07:15:24;;;;;;;4.75;4.35;;;;;;;;;;5056614;28;20024;-60
2021/08/21 07:17:50;;;;;;;7.63;5.80;;;;;;;;;;5056724;28;20111;-59
2021/08/21 07:20:16;;;;;;;5.95;5.00;;;;;;;;;;5057086;28;20037;-59
2021/08/21 07:22:42;;;;;;;7.00;5.43;;;;;;;;;;5057236;28;20029;-59
2021/08/21 07:25:08;;;;;;;6.00;4.53;;;;;;;;;;5055649;28;20024;-58
2021/08/21 07:27:34;;;;;;;7.93;5.75;;;;;;;;;;5057603;28;20048;-59
2021/08/21 07:30:00;;;;;;;8.15;5.32;;;;;;;;;;5056921;28;20033;-59
2021/08/21 07:32:27;;;;;;;4.97;4.20;;;;;;;;;;5055968;28;20051;-59
2021/08/21 07:34:53;;;;;;;5.20;4.65;;;;;;;;;;5056351;28;20033;-58
2021/08/21 07:37:25;;;;;;;6.60;4.45;;;;;;;;;;5056528;28;20041;-58
2021/08/21 07:39:51;;;;;;;4.85;4.38;;;;;;;;;;5056466;28;20047;-58
2021/08/21 07:42:17;;;;;;;5.05;3.67;;;;;;;;;;5056123;28;20455;-58
2021/08/21 07:44:43;;;;;;;5.60;4.47;;;;;;;;;;5056387;28;20028;-58
2021/08/21 07:47:09;;;;;;;4.30;3.63;;;;;;;;;;5057151;28;20029;-58
2021/08/21 07:49:38;;;;;;;4.45;3.60;;;;;;;;;;5056107;28;20123;-58
2021/08/21 07:52:05;;;;;;;5.40;3.75;;;;;;;;;;5056815;28;20021;-59
2021/08/21 07:54:31;;;;;;;9.48;4.32;;;;;;;;;;5055355;28;20108;-58
2021/08/21 07:56:57;;;;;;;7.30;5.00;;;;;;;;;;5056573;28;20033;-59
2021/08/21 07:59:23;;;;;;;4.95;3.90;;;;;;;;;;5056846;28;20120;-58
2021/08/21 08:01:49;;;;;;;7.65;4.38;;;;;;;;;;5056305;28;20028;-59
2021/08/21 08:04:15;;;;;;;5.65;4.20;;;;;;;;;;5056046;28;20021;-59
2021/08/21 08:06:41;;;;;;;7.43;4.28;;;;;;;;;;5055932;28;20107;-60
2021/08/21 08:09:07;;;;;;;5.88;4.57;;;;;;;;;;5054660;28;20060;-59
2021/08/21 08:11:33;;;;;;;6.88;4.97;;;;;;;;;;5054543;28;20029;-58
2021/08/21 08:13:59;;;;;;;5.07;4.57;;;;;;;;;;5055264;28;20025;-58
2021/08/21 08:16:25;;;;;;;5.57;3.75;;;;;;;;;;5056255;28;20059;-59
2021/08/21 08:18:51;;;;;;;5.95;4.65;;;;;;;;;;5056077;28;20025;-59
2021/08/21 08:21:19;;;;;;;4.25;3.45;;;;;;;;;;5055776;28;20455;-59
2021/08/21 08:23:45;;;;;;;4.88;3.30;;;;;;;;;;5056194;28;20037;-59
2021/08/21 08:26:12;;;;;;;4.82;3.88;;;;;;;;;;5055189;28;20502;-59
2021/08/21 08:28:38;;;;;;;5.20;4.30;;;;;;;;;;5055917;28;20029;-59
2021/08/21 08:31:04;;;;;;;9.32;4.47;;;;;;;;;;5037427;28;20090;-58
2021/08/21 08:33:30;;;;;;;6.15;4.57;;;;;;;;;;5055274;28;20115;-58
2021/08/21 08:35:56;;;;;;;6.13;4.82;;;;;;;;;;5055059;28;20025;-59
2021/08/21 08:38:22;;;;;;;5.68;5.03;;;;;;;;;;5055072;28;20032;-59
2021/08/21 08:40:55;;;;;;;6.78;4.57;;;;;;;;;;5055153;28;20367;-59
2021/08/21 08:43:24;;;;;;;6.20;5.07;;;;;;;;;;5056009;28;20035;-60
2021/08/21 08:45:50;;;;;;;6.32;5.10;;;;;;;;;;5055267;28;20033;-57
2021/08/21 08:48:17;;;;;;;6.70;5.15;;;;;;;;;;5055204;28;20061;-57
2021/08/21 08:50:43;;;;;;;6.38;4.95;;;;;;;;;;5054873;28;20158;-57
2021/08/21 08:53:09;;;;;;;6.75;4.97;;;;;;;;;;5055041;28;20099;-57
2021/08/21 08:55:35;;;;;;;8.07;4.85;;;;;;;;;;5053468;28;20039;-58
2021/08/21 08:58:03;;;;;;;6.57;5.22;;;;;;;;;;5055467;28;20041;-58
2021/08/21 09:00:31;;;;;;;4.88;4.25;;;;;;;;;;5053402;28;20430;-60
2021/08/21 09:02:58;;;;;;;6.05;4.75;;;;;;;;;;5054687;28;20023;-58
2021/08/21 09:05:25;;;;;;;6.28;5.13;;;;;;;;;;5055581;28;20390;-58
2021/08/21 09:07:56;;;;;;;5.57;4.53;;;;;;;;;;5054996;28;20105;-58
2021/08/21 09:10:22;;;;;;;5.70;4.70;;;;;;;;;;5054697;28;20029;-58
2021/08/21 09:12:49;;;;;;;6.00;4.35;;;;;;;;;;5053878;28;20071;-58
2021/08/21 09:15:28;;;;;;;5.35;4.13;;;;;;;;;;5054607;28;20035;-59
2021/08/21 09:18:02;;;;;;;5.63;3.92;;;;;;;;;;5052993;28;20029;-58
2021/08/21 09:20:35;;;;;;;6.40;4.85;;;;;;;;;;5053271;28;20017;-58
2021/08/21 09:23:20;;;;;;;5.15;4.47;;;;;;;;;;5053135;28;20052;-58
2021/08/21 09:26:14;;;;;;;5.93;4.45;;;;;;;;;;5052601;28;20049;-58
2021/08/21 09:28:44;;;;;;;4.82;3.88;;;;;;;;;;5053272;28;20051;-58
2021/08/21 09:31:10;;;;;;;;;;;;;;;;;;5055550;28;20463;-58
2021/08/21 09:33:37;;;;;;;5.30;3.72;;;;;;;;;;5054577;28;19905;-58
2021/08/21 09:36:04;;;;;;;6.15;4.35;;;;;;;;;;5053786;28;20064;-58
2021/08/21 09:38:33;;;;;;;5.05;4.03;;;;;;;;;;5054148;28;20468;-58
2021/08/21 09:41:06;;;;;;;6.82;3.80;;;;;;;;;;5054091;28;20021;-58
2021/08/21 09:43:35;;;;;;;5.97;4.55;;;;;;;;;;5054498;28;20032;-58
2021/08/21 09:46:12;;;;;;;6.68;4.45;;;;;;;;;;5054262;28;20056;-58
2021/08/21 09:48:57;;;;;;;7.65;4.22;;;;;;;;;;5053956;28;20425;-58
2021/08/21 09:51:29;;;;;;;5.40;3.70;;;;;;;;;;5054297;28;20482;-58
2021/08/21 09:54:02;;;;;;;4.75;3.58;;;;;;;;;;5054763;28;20040;-58
2021/08/21 09:56:35;;;;;;;4.90;3.55;;;;;;;;;;5052308;28;20083;-58
2021/08/21 09:59:01;;;;;;;6.38;3.90;;;;;;;;;;5053907;28;20064;-58
2021/08/21 10:01:28;;;;;;;4.30;3.42;;;;;;;;;;5054205;28;20028;-58
2021/08/21 10:03:55;;;;;;;7.47;4.25;;;;;;;;;;5054063;28;20017;-58
2021/08/21 10:06:21;;;;;;;5.68;3.65;;;;;;;;;;5053821;28;20033;-58
2021/08/21 10:08:48;;;;;;;6.63;4.45;;;;;;;;;;5054149;28;20435;-58
2021/08/21 10:11:15;;;;;;;5.05;3.83;;;;;;;;;;5054510;28;20029;-58
2021/08/21 10:13:42;;;;;;;4.30;3.90;;;;;;;;;;5054471;28;20086;-58
2021/08/21 10:16:12;;;;;;;6.22;3.67;;;;;;;;;;5052724;28;20029;-58
2021/08/21 10:18:38;;;;;;;5.05;3.90;;;;;;;;;;5053957;28;20111;-58
2021/08/21 10:21:05;;;;;;;6.93;5.00;;;;;;;;;;5053633;28;20043;-58
2021/08/21 10:23:31;;;;;;;7.15;4.38;;;;;;;;;;5053643;28;20024;-58
2021/08/21 10:26:02;;;;;;;5.85;4.95;;;;;;;;;;5053431;28;20056;-58
2021/08/21 10:28:34;;;;;;;5.85;4.50;;;;;;;;;;5053544;28;20032;-58
2021/08/21 10:31:00;;;;;;;5.45;4.63;;;;;;;;;;5054066;28;20033;-58
2021/08/21 10:33:29;;;;;;;10.50;5.57;;;;;;;;;;5053516;28;20024;-58
2021/08/21 10:35:56;;;;;;;11.32;4.38;;;;;;;;;;5053287;28;20024;-58
2021/08/21 10:38:32;;;;;;;10.23;4.75;;;;;;;;;;5054702;28;20021;-58
2021/08/21 10:41:10;;;;;;;5.47;4.25;;;;;;;;;;5058033;28;20090;-58
2021/08/21 10:43:42;;;;;;;6.25;3.85;;;;;;;;;;5057499;28;20021;-58
2021/08/21 10:46:08;;;;;;;5.15;4.63;;;;;;;;;;5057770;28;20029;-58
2021/08/21 10:48:37;;;;;;;5.38;4.60;;;;;;;;;;5057977;28;20021;-58
2021/08/21 10:51:23;;;;;;;6.22;4.88;;;;;;;;;;5057471;28;20036;-58
2021/08/21 10:53:49;;;;;;;6.10;4.30;;;;;;;;;;5053011;28;20471;-58
2021/08/21 10:56:32;;;;;;;4.10;3.70;;;;;;;;;;5057802;28;20146;-58
2021/08/21 10:58:58;;;;;;;7.93;3.83;;;;;;;;;;5057559;28;20029;-58
2021/08/21 11:01:24;;;;;;;4.93;4.18;;;;;;;;;;5057964;28;20025;-58
2021/08/21 11:03:50;;;;;;;5.25;3.75;;;;;;;;;;5056900;28;20013;-58
2021/08/21 11:06:17;;;;;;;5.97;4.97;;;;;;;;;;5056922;28;20089;-58
2021/08/21 11:08:43;;;;;;;9.48;4.47;;;;;;;;;;5057138;28;20049;-58
2021/08/21 11:11:14;;;;;;;6.10;4.72;;;;;;;;;;5057485;28;20063;-58
2021/08/21 11:16:49;;;;;;;4.43;3.80;;;;;;;;;;5056820;28;20040;-58
2021/08/21 11:19:35;;;;;;;7.40;4.65;;;;;;;;;;5057286;28;20025;-58
2021/08/21 11:22:15;;;;;;;6.95;4.78;;;;;;;;;;5057429;28;20409;-58
2021/08/21 11:25:00;;;;;;;;;;;;;;;;;;;;;
2021/08/21 11:27:27;;;;;;;4.53;3.80;;;;;;;;;;5056771;28;20049;-58
2021/08/21 11:30:27;;;;;;;6.68;4.25;;;;;;;;;;5056623;28;20017;-59
2021/08/21 11:32:57;;;;;;;5.25;4.18;;;;;;;;;;5055827;28;20029;-59
2021/08/21 11:35:35;;;;;;;4.38;3.85;;;;;;;;;;5055003;28;20025;-60
2021/08/21 11:38:12;;;;;;;5.30;4.20;;;;;;;;;;5056947;28;20029;-59
2021/08/21 11:40:43;;;;;;;8.27;4.28;;;;;;;;;;5057125;28;20032;-59
2021/08/21 11:43:10;;;;;;;5.88;4.85;;;;;;;;;;5056395;28;20025;-59
2021/08/21 11:45:37;;;;;;;5.53;4.38;;;;;;;;;;5055530;28;20067;-59
2021/08/21 11:48:12;;;;;;;5.50;3.97;;;;;;;;;;5039041;28;20047;-59
2021/08/21 11:50:43;;;;;;;5.25;4.32;;;;;;;;;;5054354;28;20408;-59
2021/08/21 11:53:13;;;;;;;5.78;3.92;;;;;;;;;;5056524;28;20100;-59
2021/08/21 11:55:39;;;;;;;;;;;;;;;;;;5056608;28;20030;-59
2021/08/21 11:58:09;;;;;;;5.40;3.75;;;;;;;;;;5056293;28;19971;-59
2021/08/21 12:00:40;;;;;;;4.80;3.67;;;;;;;;;;5055788;28;20428;-59
2021/08/21 12:03:11;;;;;;;4.68;3.55;;;;;;;;;;5056174;28;20021;-59
2021/08/21 12:05:55;;;;;;;3.88;3.50;;;;;;;;;;5056528;28;20021;-59
2021/08/21 12:08:26;;;;;;;5.22;2.92;;;;;;;;;;5055075;28;20025;-59
2021/08/21 12:10:53;;;;;;;3.88;3.08;;;;;;;;;;5055935;28;20406;-59
2021/08/21 12:13:20;;;;;;;4.90;3.75;;;;;;;;;;5056391;28;20021;-59
2021/08/21 12:15:47;;;;;;;7.30;4.30;;;;;;;;;;5055776;28;20021;-59
2021/08/21 12:18:14;;;;;;;4.82;3.63;;;;;;;;;;5054568;28;20021;-59
2021/08/21 12:20:40;;;;;;;6.25;4.15;;;;;;;;;;5054500;28;20029;-59
2021/08/21 12:23:08;;;;;;;6.30;4.47;;;;;;;;;;5055628;28;20021;-59
2021/08/21 12:25:51;;;;;;;4.75;3.53;;;;;;;;;;5055810;28;20025;-59
2021/08/21 12:28:19;;;;;;;6.88;3.95;;;;;;;;;;5055992;28;20359;-58
2021/08/21 12:30:55;;;;;;;4.68;3.58;;;;;;;;;;5055626;28;20035;-59
2021/08/21 12:33:28;;;;;;;4.10;3.38;;;;;;;;;;5055361;28;20024;-59
2021/08/21 12:35:54;;;;;;;5.43;3.38;;;;;;;;;;5055122;28;20371;-59
2021/08/21 12:38:20;;;;;;;9.65;3.25;;;;;;;;;;5054990;28;20427;-59
2021/08/21 12:41:05;;;;;;;3.65;2.80;;;;;;;;;;5055739;28;20028;-59
2021/08/21 12:43:31;;;;;;;5.30;3.33;;;;;;;;;;5055534;28;20060;-59
2021/08/21 12:46:01;;;;;;;3.92;3.00;;;;;;;;;;5055237;28;20378;-60
2021/08/21 12:48:27;;;;;;;4.93;3.83;;;;;;;;;;5055183;28;20027;-60
2021/08/21 12:50:53;;;;;;;4.38;3.63;;;;;;;;;;5053949;28;20033;-60
2021/08/21 12:53:21;;;;;;;4.55;3.78;;;;;;;;;;5056005;28;20017;-60
2021/08/21 12:55:49;;;;;;;7.00;3.92;;;;;;;;;;5053987;28;20071;-60
2021/08/21 12:58:15;;;;;;;3.75;2.92;;;;;;;;;;5055388;28;20094;-60
2021/08/21 13:00:42;;;;;;;4.03;3.42;;;;;;;;;;5053749;28;20032;-60
2021/08/21 13:03:20;;;;;;;7.13;3.85;;;;;;;;;;5055826;28;20045;-60
2021/08/21 13:05:59;;;;;;;4.35;3.20;;;;;;;;;;5054677;28;20017;-59
2021/08/21 13:08:39;;;;;;;4.45;3.33;;;;;;;;;;5054836;28;20024;-58
2021/08/21 13:11:05;;;;;;;;;;;;;;;;;;5055834;28;20047;-58
2021/08/21 13:13:40;;;;;;;4.18;3.25;;;;;;;;;;5054800;28;20354;-59
2021/08/21 13:16:07;;;;;;;4.47;3.05;;;;;;;;;;5054698;28;20049;-59
2021/08/21 13:18:45;;;;;;;5.15;2.60;;;;;;;;;;5054667;28;20366;-59
2021/08/21 13:21:48;;;;;;;4.53;3.58;;;;;;;;;;5054328;28;20032;-59
2021/08/21 13:24:07;;;;;;;3.92;2.85;;;;;;;;;;5051138;28;20025;-59
2021/08/21 13:26:47;;;;;;;4.18;3.03;;;;;;;;;;5054365;28;20057;-59
2021/08/21 13:29:14;;;;;;;4.07;3.03;;;;;;;;;;5054056;28;20044;-58
2021/08/21 13:31:42;;;;;;;3.50;3.03;;;;;;;;;;5054801;28;20048;-59
2021/08/21 13:34:17;;;;;;;3.58;3.20;;;;;;;;;;5051743;28;20104;-59
2021/08/21 13:36:52;;;;;;;3.40;2.75;;;;;;;;;;5054283;28;20484;-59
2021/08/21 13:39:40;;;;;;;4.22;2.75;;;;;;;;;;5054098;28;20021;-59
2021/08/21 13:42:06;;;;;;;5.28;3.55;;;;;;;;;;5054162;28;20021;-59
2021/08/21 13:44:32;;;;;;;4.93;3.92;;;;;;;;;;5054071;28;20021;-58
2021/08/21 13:46:59;;;;;;;4.13;3.35;;;;;;;;;;5054123;28;20028;-58
2021/08/21 13:49:25;;;;;;;4.32;3.17;;;;;;;;;;5054122;28;20421;-59
2021/08/21 13:51:51;;;;;;;5.57;3.65;;;;;;;;;;5054657;28;20055;-59
2021/08/21 13:54:17;;;;;;;4.03;3.65;;;;;;;;;;5053658;28;20087;-59
2021/08/21 13:56:43;;;;;;;4.40;3.22;;;;;;;;;;5053965;28;20040;-60
2021/08/21 13:59:11;;;;;;;4.50;3.53;;;;;;;;;;5053995;28;20104;-59
2021/08/21 14:01:58;;;;;;;3.63;3.13;;;;;;;;;;5052670;28;20032;-59
2021/08/21 14:04:27;;;;;;;3.90;2.28;;;;;;;;;;5054207;28;20412;-59
2021/08/21 14:06:53;;;;;;;4.97;3.63;;;;;;;;;;5054223;28;20522;-60
2021/08/21 14:09:19;;;;;;;6.00;3.05;;;;;;;;;;5054313;28;20064;-60
2021/08/21 14:11:48;;;;;;;6.07;3.83;;;;;;;;;;5053792;28;20036;-60
2021/08/21 14:14:15;;;;;;;5.93;3.47;;;;;;;;;;5054030;28;20055;-60
2021/08/21 14:16:44;;;;;;;7.95;4.32;;;;;;;;;;5053659;28;20280;-60
2021/08/21 14:19:13;;;;;;;5.40;3.28;;;;;;;;;;5053482;28;20483;-60
2021/08/21 14:21:40;;;;;;;5.55;3.65;;;;;;;;;;5054330;28;20366;-60
2021/08/21 14:24:06;;;;;;;4.53;2.85;;;;;;;;;;5053332;28;20071;-60
2021/08/21 14:26:33;;;;;;;3.80;3.42;;;;;;;;;;5053743;28;20107;-60
2021/08/21 14:28:59;;;;;;;5.88;3.95;;;;;;;;;;5053265;28;20025;-60
2021/08/21 14:31:25;;;;;;;3.90;3.20;;;;;;;;;;5052316;28;20033;-60
2021/08/21 14:33:52;;;;;;;3.47;2.97;;;;;;;;;;5053137;28;20025;-60
2021/08/21 14:36:24;;;;;;;4.90;3.72;;;;;;;;;;5053402;28;20116;-60
2021/08/21 14:38:50;;;;;;;4.95;3.22;;;;;;;;;;5054123;28;20067;-60
2021/08/21 14:41:16;;;;;;;4.07;3.03;;;;;;;;;;5053936;28;20104;-60
2021/08/21 14:43:42;;;;;;;4.75;3.20;;;;;;;;;;5053557;28;20033;-60
2021/08/21 14:46:08;;;;;;;4.57;3.55;;;;;;;;;;5053687;28;20017;-60
2021/08/21 14:48:34;;;;;;;3.70;3.35;;;;;;;;;;5052464;28;20415;-60
2021/08/21 14:51:06;;;;;;;3.67;3.08;;;;;;;;;;5052501;28;20021;-60
2021/08/21 14:53:33;;;;;;;4.03;2.85;;;;;;;;;;5053827;28;20021;-60
2021/08/21 14:55:59;;;;;;;4.97;3.63;;;;;;;;;;5053319;28;20021;-60